| time (UTC) | temp C | wind direction | speed KPH | gust KPH | rain 1hr cm | rain 24hr cm | rain mn cm | humidity % | barometer mb |
| 20260906221537 | 25 | 40 | 6.4 | 19.3 | 0.00 | 0.00 | 0.00 | 52 | 1012.9 |
| 20260906220037 | 25 | 72 | 11.3 | 22.5 | 0.00 | 0.00 | 0.00 | 52 | 1013.0 |
| 20260906214539 | 25 | 34 | 6.4 | 20.9 | 0.00 | 0.00 | 0.00 | 51 | 1013.2 |
| 20260906213040 | 25 | 65 | 3.2 | 14.5 | 0.00 | 0.00 | 0.00 | 51 | 1013.4 |
| 20260906211538 | 25 | 105 | 12.9 | 24.1 | 0.00 | 0.00 | 0.00 | 50 | 1013.5 |
| 20260906204543 | 25 | 88 | 9.7 | 22.5 | 0.00 | 0.00 | 0.00 | 50 | 1013.9 |
| 20260906200038 | 23 | 64 | 11.3 | 20.9 | 0.00 | 0.00 | 0.00 | 59 | 1014.3 |
| 20260906190038 | 21 | 34 | 3.2 | 14.5 | 0.00 | 0.00 | 0.00 | 70 | 1015.6 |
| 20260906094538 | 15 | 360 | 12.9 | 17.7 | 0.00 | 0.00 | 0.00 | 73 | 1016.9 |
| 20260906073040 | 16 | 348 | 12.9 | 19.3 | 0.00 | 0.00 | 0.00 | 62 | 1017.6 |
| 20260906071536 | 17 | 11 | 12.9 | 20.9 | 0.00 | 0.00 | 0.00 | 60 | 1017.6 |
| 20260906064537 | 17 | 5 | 11.3 | 17.7 | 0.00 | 0.00 | 0.00 | 55 | 1017.8 |
| 20260906054542 | 18 | 5 | 8.0 | 16.1 | 0.00 | 0.00 | 0.00 | 50 | 1017.7 |
| 20260906050050 | 18 | 360 | 9.7 | 14.5 | 0.00 | 0.00 | 0.00 | 48 | 1017.7 |
| 20260906044537 | 18 | 360 | 8.0 | 12.9 | 0.00 | 0.00 | 0.00 | 46 | 1017.7 |
| 20260906041539 | 20 | 5 | 9.7 | 17.7 | 0.00 | 0.00 | 0.00 | 44 | 1017.8 |
| 20260906040040 | 20 | 11 | 11.3 | 17.7 | 0.00 | 0.00 | 0.00 | 44 | 1017.8 |
| 20260906031540 | 20 | 9 | 12.9 | 20.9 | 0.00 | 0.00 | 0.00 | 40 | 1017.9 |
| 20260906030039 | 21 | 13 | 9.7 | 17.7 | 0.00 | 0.00 | 0.00 | 40 | 1017.7 |
| 20260906021539 | 21 | 44 | 9.7 | 17.7 | 0.00 | 0.00 | 0.00 | 39 | 1017.4 |
| 20260906020051 | 21 | 44 | 9.7 | 16.1 | 0.00 | 0.00 | 0.00 | 39 | 1017.2 |
| 20260906013048 | 22 | 58 | 16.1 | 22.5 | 0.00 | 0.00 | 0.00 | 35 | 1017.2 |
| 20260906003038 | 25 | 42 | 17.7 | 30.6 | 0.00 | 0.00 | 0.00 | 29 | 1016.8 |
| 20260905223038 | 25 | 54 | 16.1 | 25.7 | 0.00 | 0.00 | 0.00 | 27 | 1016.4 |